Time;durP1;ratioP1;P1;durP2;ratioP2;P2;SDS_P1;SDS_P2;PMS_P1;PMS_P2;Temp;Humidity;BMP_temperature;BMP_pressure;BME280_temperature;BME280_humidity;BME280_pressure;Samples;Min_cycle;Max_cycle;Signal;HPM_P1;HPM_P2
2022/12/04 00:00:12;;;;;;;36.33;14.80;;;1.60;1.00;;;;;;5074671;28;20040;-74
2022/12/04 00:02:39;;;;;;;37.92;14.45;;;1.60;10.50;;;;;;5074545;28;20048;-74
2022/12/04 00:05:06;;;;;;;40.60;15.43;;;1.60;1.00;;;;;;5074531;28;20044;-74
2022/12/04 00:07:32;;;;;;;39.22;14.90;;;1.60;2.30;;;;;;5058042;28;20052;-74
2022/12/04 00:09:57;;;;;;;39.90;15.52;;;1.60;4.70;;;;;;5074626;28;20047;-75
2022/12/04 00:12:23;;;;;;;41.15;14.63;;;1.50;1.00;;;;;;5091279;28;20153;-74
2022/12/04 00:14:49;;;;;;;38.70;15.68;;;1.60;9.70;;;;;;5057969;28;20136;-73
2022/12/04 00:17:15;;;;;;;35.45;14.50;;;1.50;1.00;;;;;;5057605;28;20458;-73
2022/12/04 00:19:41;;;;;;;38.70;15.23;;;1.50;1.00;;;;;;5058028;28;20525;-73
2022/12/04 00:22:07;;;;;;;39.33;14.93;;;1.50;1.00;;;;;;5041215;28;20497;-72
2022/12/04 00:24:33;;;;;;;43.30;16.83;;;1.50;1.00;;;;;;5074569;28;20547;-72
2022/12/04 00:26:59;;;;;;;42.05;16.35;;;2.50;1.00;;;;;;5057820;28;20076;-73
2022/12/04 00:29:25;;;;;;;46.53;17.55;;;1.40;1.00;;;;;;5075400;28;20044;-72
2022/12/04 00:31:51;;;;;;;47.85;17.75;;;1.40;1.00;;;;;;5045230;28;20044;-73
2022/12/04 00:34:17;;;;;;;41.95;17.23;;;1.40;1.00;;;;;;5061548;28;20100;-73
2022/12/04 00:36:43;;;;;;;43.78;16.85;;;1.40;1.00;;;;;;5061498;28;20136;-72
2022/12/04 00:39:09;;;;;;;48.15;16.85;;;1.40;1.00;;;;;;5061381;28;20054;-72
2022/12/04 00:41:35;;;;;;;46.60;16.50;;;2.20;1.00;;;;;;5044955;28;20118;-72
2022/12/04 00:44:01;;;;;;;46.22;17.13;;;1.40;1.00;;;;;;5061127;28;20135;-72
2022/12/04 00:46:28;;;;;;;47.17;18.80;;;1.40;1.00;;;;;;5077610;28;20044;-72
2022/12/04 00:48:54;;;;;;;50.33;18.02;;;2.10;1.00;;;;;;5078001;28;20433;-73
2022/12/04 00:51:23;;;;;;;47.97;19.23;;;1.40;1.00;;;;;;5077879;28;20086;-72
2022/12/04 00:53:51;;;;;;;51.58;19.77;;;1.40;12.20;;;;;;5061334;28;20059;-72
2022/12/04 00:56:20;;;;;;;51.75;20.30;;;1.40;34.80;;;;;;5043019;28;20052;-72
2022/12/04 00:58:46;;;;;;;51.25;19.38;;;1.10;3.20;;;;;;5061111;28;20056;-73
2022/12/04 01:01:16;;;;;;;50.75;18.90;;;1.30;8.10;;;;;;5060956;28;20050;-73
2022/12/04 01:03:43;;;;;;;50.85;18.92;;;2.20;29.80;;;;;;5077746;28;20052;-73
2022/12/04 01:06:21;;;;;;;53.97;20.17;;;1.30;62.60;;;;;;5060370;28;20047;-73
2022/12/04 01:08:48;;;;;;;55.67;20.92;;;1.30;88.30;;;;;;5077784;28;20055;-74
2022/12/04 01:11:15;;;;;;;57.35;21.10;;;1.30;71.80;;;;;;5077380;28;20131;-75
2022/12/04 01:13:41;;;;;;;51.30;20.05;;;1.30;90.20;;;;;;5060797;28;20109;-74
2022/12/04 01:16:07;;;;;;;53.45;19.77;;;1.30;94.80;;;;;;5060803;28;20087;-76
2022/12/04 01:18:33;;;;;;;53.55;20.08;;;1.20;79.30;;;;;;5060660;28;20138;-75
2022/12/04 01:20:59;;;;;;;54.42;20.13;;;1.20;79.50;;;;;;5060857;28;20083;-75
2022/12/04 01:23:25;;;;;;;53.92;20.15;;;1.20;85.10;;;;;;5095135;28;20059;-74
2022/12/04 01:25:57;;;;;;;60.38;21.70;;;1.20;58.90;;;;;;5077359;28;20046;-74
2022/12/04 01:28:24;;;;;;;52.88;19.20;;;1.20;83.90;;;;;;5060479;28;20040;-74
2022/12/04 01:31:01;;;;;;;52.45;19.58;;;1.20;99.90;;;;;;5060649;28;20088;-75
2022/12/04 01:33:28;;;;;;;50.20;18.50;;;1.20;99.90;;;;;;5060408;28;20537;-75
2022/12/04 01:35:59;;;;;;;56.78;20.42;;;2.20;99.90;;;;;;5060308;28;20397;-75
2022/12/04 01:38:25;;;;;;;55.58;20.85;;;1.20;99.90;;;;;;5060032;28;20040;-74
2022/12/04 01:40:52;;;;;;;50.83;18.55;;;1.20;99.90;;;;;;5060305;28;20058;-74
2022/12/04 01:43:18;;;;;;;51.33;19.38;;;1.20;99.90;;;;;;5076626;28;20040;-74
2022/12/04 01:45:46;;;;;;;57.97;20.88;;;1.10;99.90;;;;;;5060376;28;20101;-74
2022/12/04 01:48:16;;;;;;;57.05;20.67;;;1.10;99.90;;;;;;5060310;28;20101;-75
2022/12/04 01:50:43;;;;;;;57.05;20.20;;;1.10;99.90;;;;;;5073882;28;21367;-74
2022/12/04 01:53:10;;;;;;;55.22;20.33;;;1.10;99.90;;;;;;5023886;28;20075;-73
2022/12/04 01:55:36;;;;;;;51.88;19.83;;;1.10;99.90;;;;;;5040004;28;20075;-73
2022/12/04 01:58:02;;;;;;;56.88;20.60;;;1.10;99.90;;;;;;5039377;28;20109;-73
2022/12/04 02:00:29;;;;;;;49.90;18.30;;;1.10;99.90;;;;;;5023086;28;20063;-73
2022/12/04 02:02:57;;;;;;;56.67;19.65;;;1.10;99.90;;;;;;5039993;28;20051;-72
2022/12/04 02:05:23;;;;;;;58.22;19.85;;;1.10;99.90;;;;;;5039750;28;20174;-71
2022/12/04 02:07:54;;;;;;;55.60;19.65;;;1.00;99.90;;;;;;5056613;28;20459;-73
2022/12/04 02:10:26;;;;;;;49.00;18.77;;;1.00;99.90;;;;;;5056402;28;20471;-72
2022/12/04 02:13:18;;;;;;;58.53;20.27;;;1.30;99.90;;;;;;5056539;28;20044;-73
2022/12/04 02:15:59;;;;;;;55.45;19.67;;;1.10;99.90;;;;;;5039765;28;20056;-72
2022/12/04 02:18:27;;;;;;;54.55;20.52;;;1.00;99.90;;;;;;5039149;28;20540;-73
2022/12/04 02:21:18;;;;;;;61.78;21.35;;;1.10;99.90;;;;;;5039685;28;20572;-73
2022/12/04 02:23:50;;;;;;;62.05;22.90;;;1.10;99.90;;;;;;5039784;28;20444;-72
2022/12/04 02:26:41;;;;;;;53.55;19.65;;;1.80;99.90;;;;;;5039501;28;20102;-72
2022/12/04 02:29:13;;;;;;;59.72;20.63;;;1.00;99.90;;;;;;5039194;28;20053;-74
2022/12/04 02:32:18;;;;;;;54.20;19.48;;;1.00;99.90;;;;;;5039334;28;20163;-73
2022/12/04 02:35:14;;;;;;;58.50;20.65;;;1.00;99.90;;;;;;5055840;28;20052;-73
2022/12/04 02:37:50;;;;;;;61.97;20.92;;;1.00;99.90;;;;;;5039055;28;20431;-73
2022/12/04 02:40:32;;;;;;;60.78;20.98;;;1.00;99.90;;;;;;5038977;28;20525;-73
2022/12/04 02:43:15;;;;;;;59.15;21.13;;;1.00;99.90;;;;;;5039418;28;20041;-72
2022/12/04 02:45:45;;;;;;;62.88;21.80;;;1.00;99.90;;;;;;5039040;28;20127;-73
2022/12/04 02:48:18;;;;;;;60.80;21.85;;;1.00;99.90;;;;;;5055860;28;20060;-75
2022/12/04 02:50:46;;;;;;;62.63;22.27;;;1.00;99.90;;;;;;5038862;28;20048;-74
2022/12/04 02:53:35;;;;;;;53.13;20.80;;;1.00;99.90;;;;;;5038229;28;20052;-74
2022/12/04 02:56:24;;;;;;;55.22;20.52;;;1.20;99.90;;;;;;5039041;28;20048;-73
2022/12/04 02:59:13;;;;;;;62.13;21.85;;;0.90;99.90;;;;;;5038940;28;20090;-73
2022/12/04 03:01:42;;;;;;;58.85;19.98;;;1.00;99.90;;;;;;5038498;28;20454;-74
2022/12/04 03:04:16;;;;;;;62.42;21.10;;;0.90;99.90;;;;;;5038831;28;20052;-73
2022/12/04 03:06:46;;;;;;;54.97;20.40;;;1.00;99.90;;;;;;5038662;28;20131;-74
2022/12/04 03:09:19;;;;;;;57.58;21.13;;;1.00;99.90;;;;;;5038593;28;20087;-74
2022/12/04 03:11:51;;;;;;;62.05;20.90;;;1.50;99.90;;;;;;5054879;28;20052;-73
2022/12/04 03:14:24;;;;;;;54.30;20.75;;;1.00;99.90;;;;;;5038691;28;20044;-73
2022/12/04 03:16:54;;;;;;;57.72;21.15;;;1.00;99.90;;;;;;5054716;28;20405;-73
2022/12/04 03:19:35;;;;;;;62.30;22.52;;;1.00;99.90;;;;;;5038655;28;20052;-73
2022/12/04 03:22:03;;;;;;;;;;;0.90;99.90;;;;;;5039121;28;20158;-73
2022/12/04 03:24:36;;;;;;;60.70;21.60;;;1.80;99.90;;;;;;5038334;28;19927;-73
2022/12/04 03:27:05;;;;;;;60.60;21.67;;;0.90;99.90;;;;;;5055049;28;20112;-73
2022/12/04 03:29:45;;;;;;;60.10;22.50;;;0.90;99.90;;;;;;5054813;28;20048;-73
2022/12/04 03:32:41;;;;;;;60.83;21.20;;;0.90;99.90;;;;;;5038504;28;20054;-73
2022/12/04 03:35:20;;;;;;;58.08;21.73;;;0.90;99.90;;;;;;5038524;28;20380;-72
2022/12/04 03:38:08;;;;;;;59.05;20.90;;;0.90;99.90;;;;;;5037895;28;20700;-72
2022/12/04 03:40:47;;;;;;;62.55;22.25;;;0.90;99.90;;;;;;5054474;28;20379;-73
2022/12/04 03:43:32;;;;;;;61.13;20.10;;;0.90;99.90;;;;;;5038342;28;20059;-72
2022/12/04 03:46:04;;;;;;;60.67;20.45;;;0.90;99.90;;;;;;5038128;28;20048;-72
2022/12/04 03:48:56;;;;;;;62.30;22.15;;;0.80;99.90;;;;;;5038077;28;20513;-75
2022/12/04 03:51:31;;;;;;;59.45;22.17;;;1.20;99.90;;;;;;5038314;28;20045;-73
2022/12/04 03:54:03;;;;;;;57.50;20.77;;;0.90;99.90;;;;;;5038250;28;20055;-74
2022/12/04 03:56:38;;;;;;;60.33;22.45;;;0.90;99.90;;;;;;5037916;28;20060;-74
2022/12/04 03:59:10;;;;;;;61.47;22.30;;;0.80;99.90;;;;;;5054945;28;20398;-74
2022/12/04 04:01:42;;;;;;;61.05;22.02;;;0.80;99.90;;;;;;5038034;28;20048;-74
2022/12/04 04:04:17;;;;;;;63.22;22.75;;;0.80;99.90;;;;;;5038288;28;20051;-72
2022/12/04 04:06:52;;;;;;;59.40;22.05;;;0.80;99.90;;;;;;5041745;28;20056;-72
2022/12/04 04:09:23;;;;;;;62.30;21.67;;;0.80;99.90;;;;;;5042138;28;20052;-73
2022/12/04 04:11:55;;;;;;;65.15;22.98;;;0.80;99.90;;;;;;5041810;28;20049;-73
2022/12/04 04:25:45;;;;;;;55.72;21.60;;;0.90;99.90;;;;;;5058401;28;20448;-72
2022/12/04 04:28:41;;;;;;;59.63;21.77;;;0.90;99.90;;;;;;5058336;28;20521;-71
2022/12/04 04:31:25;;;;;;;61.83;22.02;;;0.90;99.90;;;;;;5041729;28;20107;-71
2022/12/04 04:34:10;;;;;;;61.55;22.55;;;0.90;99.90;;;;;;5058220;28;20079;-72
2022/12/04 04:36:56;;;;;;;60.42;22.10;;;0.90;99.90;;;;;;5041674;28;20045;-71
2022/12/04 04:39:57;;;;;;;63.60;22.98;;;1.00;99.90;;;;;;5058331;28;20045;-72
2022/12/04 04:42:34;;;;;;;61.27;21.77;;;0.90;99.90;;;;;;5058430;28;20076;-72
2022/12/04 04:45:27;;;;;;;62.90;22.15;;;0.90;99.90;;;;;;5041428;28;20135;-71
2022/12/04 04:48:08;;;;;;;62.75;22.77;;;0.90;99.90;;;;;;5027833;28;20082;-74
2022/12/04 04:50:36;;;;;;;61.08;20.98;;;0.90;99.90;;;;;;5057846;28;20370;-74
2022/12/04 04:53:07;;;;;;;61.90;22.65;;;0.90;99.90;;;;;;5041307;28;20504;-73
2022/12/04 04:55:35;;;;;;;62.25;21.75;;;0.90;99.90;;;;;;5066570;28;20036;-72
2022/12/04 04:58:16;;;;;;;61.80;22.10;;;0.90;99.90;;;;;;5067348;28;20065;-71
2022/12/04 05:00:54;;;;;;;62.95;22.23;;;0.90;99.90;;;;;;5037526;28;20049;-71
2022/12/04 05:03:20;;;;;;;65.15;23.50;;;1.00;99.90;;;;;;5054612;28;20045;-72
2022/12/04 05:05:46;;;;;;;59.00;22.27;;;0.90;99.90;;;;;;5021119;28;20071;-73
2022/12/04 05:08:12;;;;;;;63.70;23.13;;;1.00;99.90;;;;;;5037910;28;20045;-74
2022/12/04 05:10:38;;;;;;;60.20;22.00;;;0.90;99.90;;;;;;5037714;28;20057;-73
2022/12/04 05:13:03;;;;;;;63.15;23.00;;;1.00;99.90;;;;;;5021141;28;20098;-73
2022/12/04 05:15:29;;;;;;;62.38;22.98;;;1.00;99.90;;;;;;5053626;28;20111;-73
2022/12/04 05:17:55;;;;;;;61.88;22.75;;;1.00;99.90;;;;;;5053865;28;20044;-73
2022/12/04 05:20:21;;;;;;;59.78;21.75;;;1.00;99.90;;;;;;5037534;28;20430;-74
2022/12/04 05:22:47;;;;;;;61.75;22.83;;;1.80;99.90;;;;;;5053818;28;20053;-73
2022/12/04 05:25:13;;;;;;;67.70;23.23;;;1.00;99.90;;;;;;5037433;28;20049;-73
2022/12/04 05:27:39;;;;;;;61.28;22.02;;;1.30;99.90;;;;;;5037436;28;20128;-73
2022/12/04 05:30:05;;;;;;;59.38;21.60;;;2.00;99.90;;;;;;5020662;28;20088;-73
2022/12/04 05:32:31;;;;;;;63.97;23.20;;;1.00;99.90;;;;;;5053988;28;20067;-74
2022/12/04 05:34:57;;;;;;;61.38;21.90;;;1.00;99.90;;;;;;5037172;28;20091;-73
2022/12/04 05:37:24;;;;;;;63.67;22.48;;;1.00;99.90;;;;;;5053641;28;20041;-73
2022/12/04 05:39:50;;;;;;;57.92;21.27;;;1.00;99.90;;;;;;5020811;28;20238;-73
2022/12/04 05:42:16;;;;;;;68.15;23.20;;;1.00;99.90;;;;;;5036948;28;20503;-73
2022/12/04 05:44:42;;;;;;;63.72;22.70;;;1.00;99.90;;;;;;5053748;28;20095;-74
2022/12/04 05:47:08;;;;;;;67.05;22.83;;;1.00;99.90;;;;;;5036856;28;20049;-72
2022/12/04 05:49:34;;;;;;;65.22;23.35;;;1.00;99.90;;;;;;5037097;28;20056;-73
2022/12/04 05:52:01;;;;;;;59.63;23.13;;;1.00;99.90;;;;;;5020423;28;20059;-73
2022/12/04 05:54:27;;;;;;;61.92;22.70;;;1.00;99.90;;;;;;5053607;28;20128;-73
2022/12/04 05:56:53;;;;;;;61.78;23.02;;;1.00;99.90;;;;;;5036311;28;20132;-73
2022/12/04 05:59:19;;;;;;;63.72;22.15;;;1.00;99.90;;;;;;5053212;28;20127;-74
2022/12/04 06:01:45;;;;;;;63.53;22.98;;;1.00;99.90;;;;;;5036499;28;20088;-73
2022/12/04 06:04:11;;;;;;;66.03;23.42;;;1.00;99.90;;;;;;5053180;28;20608;-73
2022/12/04 06:06:37;;;;;;;64.82;23.02;;;1.00;99.90;;;;;;5036839;28;20076;-75
2022/12/04 06:09:05;;;;;;;64.50;22.45;;;1.00;99.90;;;;;;5036418;28;20048;-74
2022/12/04 06:11:35;;;;;;;59.47;21.20;;;1.20;99.90;;;;;;5036676;28;20049;-74
2022/12/04 06:14:03;;;;;;;65.70;22.17;;;1.00;99.90;;;;;;5036342;28;20056;-74
2022/12/04 06:16:33;;;;;;;66.18;23.00;;;1.00;99.90;;;;;;5036467;28;20041;-75
2022/12/04 06:19:02;;;;;;;62.20;23.00;;;1.00;99.90;;;;;;5036236;28;20041;-74
2022/12/04 06:21:30;;;;;;;61.08;22.73;;;1.10;99.90;;;;;;5053005;28;20056;-74
2022/12/04 06:23:56;;;;;;;66.18;23.65;;;1.00;99.90;;;;;;5036279;28;20048;-74
2022/12/04 06:26:23;;;;;;;58.78;22.25;;;2.00;99.90;;;;;;5035906;28;20075;-73
2022/12/04 06:28:51;;;;;;;66.10;23.75;;;1.00;99.90;;;;;;5035792;28;20052;-74
2022/12/04 06:31:17;;;;;;;64.00;22.83;;;1.10;99.90;;;;;;5019460;28;20061;-73
2022/12/04 06:33:44;;;;;;;67.05;23.20;;;1.10;99.90;;;;;;5036064;28;20377;-75
2022/12/04 06:36:12;;;;;;;71.50;23.27;;;1.10;99.90;;;;;;5052599;28;20048;-75
2022/12/04 06:38:39;;;;;;;67.30;22.08;;;1.80;99.90;;;;;;5035555;28;20056;-74
2022/12/04 06:41:07;;;;;;;66.88;24.40;;;1.10;99.90;;;;;;5035931;28;20122;-72
2022/12/04 06:43:33;;;;;;;64.55;22.55;;;1.10;99.90;;;;;;5035892;28;20410;-72
2022/12/04 06:46:14;;;;;;;62.55;22.42;;;1.10;99.90;;;;;;5036035;28;20103;-72
2022/12/04 06:48:41;;;;;;;65.25;22.77;;;1.10;99.90;;;;;;5052529;28;20049;-73
2022/12/04 06:51:18;;;;;;;66.85;22.83;;;1.10;99.90;;;;;;5035606;28;20052;-73
2022/12/04 06:53:44;;;;;;;65.28;21.85;;;1.10;99.90;;;;;;5052258;28;20037;-72
2022/12/04 06:56:16;;;;;;;61.10;22.45;;;1.80;99.90;;;;;;5049654;28;20562;-75
2022/12/04 06:58:46;;;;;;;63.63;21.38;;;1.10;99.90;;;;;;5061121;28;20067;-74
2022/12/04 07:01:15;;;;;;;61.38;21.73;;;1.20;99.90;;;;;;5053225;28;20060;-74
2022/12/04 07:03:41;;;;;;;66.57;23.05;;;1.20;99.90;;;;;;5053071;28;20067;-74
2022/12/04 07:06:13;;;;;;;68.88;22.65;;;1.10;99.90;;;;;;5053042;28;20040;-75
2022/12/04 07:08:40;;;;;;;60.80;22.73;;;1.10;99.90;;;;;;5052689;28;20448;-75
2022/12/04 07:11:06;;;;;;;65.72;22.50;;;1.20;99.90;;;;;;5053144;28;20049;-75
2022/12/04 07:13:32;;;;;;;64.55;23.00;;;1.20;99.90;;;;;;4704141;28;10000308;-74
2022/12/04 07:16:06;;;;;;;60.45;21.73;;;1.20;99.90;;;;;;5069842;28;20429;-73
2022/12/04 07:18:32;;;;;;;63.25;22.60;;;1.20;99.90;;;;;;5069558;28;20123;-73
2022/12/04 07:20:58;;;;;;;66.07;22.58;;;1.20;99.90;;;;;;5052657;28;20111;-74
2022/12/04 07:23:25;;;;;;;57.80;21.52;;;1.20;99.90;;;;;;5052659;28;20048;-75
2022/12/04 07:25:51;;;;;;;58.47;22.27;;;1.20;99.90;;;;;;5053061;28;20072;-74
2022/12/04 07:28:17;;;;;;;64.10;21.55;;;1.20;99.90;;;;;;5069388;28;20037;-75
2022/12/04 07:30:43;;;;;;;61.35;22.25;;;1.30;99.90;;;;;;5020067;28;20048;-74
2022/12/04 07:33:09;;;;;;;57.35;20.63;;;1.20;99.90;;;;;;5069149;28;20470;-75
2022/12/04 07:35:35;;;;;;;61.63;22.10;;;1.30;99.90;;;;;;5052399;28;20060;-74
2022/12/04 07:38:01;;;;;;;62.75;22.48;;;1.30;99.90;;;;;;5038005;28;20148;-73
2022/12/04 07:40:27;;;;;;;61.90;21.65;;;1.30;99.90;;;;;;5054689;28;20143;-74
2022/12/04 07:42:53;;;;;;;58.38;20.52;;;1.30;99.90;;;;;;5021701;28;20384;-74
2022/12/04 07:45:19;;;;;;;60.00;22.55;;;1.30;99.90;;;;;;5054311;28;20048;-76
2022/12/04 07:47:45;;;;;;;57.67;21.17;;;1.30;99.90;;;;;;5021578;28;20051;-73
2022/12/04 07:50:11;;;;;;;61.67;21.70;;;1.30;99.90;;;;;;5037523;28;20139;-76
2022/12/04 07:52:38;;;;;;;59.45;22.00;;;0.90;99.90;;;;;;5054212;28;20055;-76
2022/12/04 07:55:05;;;;;;;57.50;21.05;;;1.30;99.90;;;;;;5068066;28;20044;-75
2022/12/04 07:57:32;;;;;;;54.60;21.63;;;1.40;99.90;;;;;;5053561;28;20048;-77
2022/12/04 07:59:58;;;;;;;63.10;21.88;;;1.40;99.90;;;;;;5055254;28;20531;-75
2022/12/04 08:02:25;;;;;;;60.45;22.63;;;1.40;99.90;;;;;;5089726;28;20052;-78
2022/12/04 08:04:51;;;;;;;58.30;21.45;;;1.40;99.90;;;;;;5055775;28;20040;-76
2022/12/04 08:07:17;;;;;;;59.17;21.35;;;1.40;99.90;;;;;;5055623;28;20052;-76
2022/12/04 08:09:43;;;;;;;56.35;20.75;;;1.50;99.90;;;;;;5039449;28;20056;-76
2022/12/04 08:12:09;;;;;;;57.80;21.02;;;1.50;99.90;;;;;;5055285;28;20096;-78
2022/12/04 08:14:37;;;;;;;53.25;21.23;;;1.50;99.90;;;;;;5052084;28;20053;-76
2022/12/04 08:17:03;;;;;;;55.85;21.45;;;1.50;99.90;;;;;;5035878;28;20048;-76
2022/12/04 08:19:28;;;;;;;57.67;21.65;;;1.50;99.90;;;;;;5068133;28;20403;-77
2022/12/04 08:21:55;;;;;;;59.08;22.45;;;1.50;99.90;;;;;;5052612;28;20056;-78
2022/12/04 08:24:20;;;;;;;53.95;21.55;;;1.60;99.90;;;;;;5035659;28;20051;-77
2022/12/04 08:26:46;;;;;;;59.10;22.38;;;1.60;99.90;;;;;;5052535;28;20052;-77
2022/12/04 08:29:12;;;;;;;53.95;20.50;;;2.70;99.90;;;;;;5068603;28;20523;-75
2022/12/04 08:31:38;;;;;;;52.95;20.40;;;1.60;99.90;;;;;;5068426;28;20074;-76
2022/12/04 08:34:06;;;;;;;53.75;20.10;;;1.60;99.90;;;;;;5036019;28;20060;-77
2022/12/04 08:36:33;;;;;;;58.13;21.70;;;1.60;99.90;;;;;;5052468;28;20465;-77
2022/12/04 08:38:59;;;;;;;51.03;19.08;;;1.70;99.90;;;;;;5069474;28;20040;-77
2022/12/04 08:41:26;;;;;;;50.03;19.27;;;1.70;99.90;;;;;;5055021;28;20158;-76
2022/12/04 08:43:54;;;;;;;56.35;20.35;;;1.70;99.90;;;;;;5071896;28;20437;-77
2022/12/04 08:46:21;;;;;;;53.42;20.35;;;1.70;99.90;;;;;;5071765;28;20055;-77
2022/12/04 08:48:47;;;;;;;53.03;20.02;;;1.80;99.90;;;;;;5055726;28;20523;-76
2022/12/04 08:51:19;;;;;;;54.75;20.25;;;1.80;99.90;;;;;;5057764;28;20121;-77
2022/12/04 08:53:45;;;;;;;52.47;20.17;;;1.80;99.90;;;;;;5058367;28;20508;-77
2022/12/04 08:56:12;;;;;;;58.42;21.40;;;1.90;99.90;;;;;;5075793;28;20083;-77
2022/12/04 08:58:38;;;;;;;53.03;19.55;;;1.90;99.90;;;;;;5057633;28;20056;-76
2022/12/04 09:01:11;;;;;;;50.88;20.50;;;1.90;99.90;;;;;;5075674;28;20139;-76
2022/12/04 09:03:37;;;;;;;48.90;20.15;;;2.00;99.90;;;;;;5075791;28;20464;-76
2022/12/04 09:06:04;;;;;;;48.83;18.55;;;2.00;99.90;;;;;;5058453;28;20108;-78
2022/12/04 09:08:31;;;;;;;52.10;19.63;;;2.00;99.90;;;;;;5058756;28;20179;-76
2022/12/04 09:11:12;;;;;;;50.05;19.95;;;2.10;99.90;;;;;;5058640;28;20467;-78
2022/12/04 09:13:40;;;;;;;52.45;20.90;;;2.10;99.90;;;;;;5055278;28;20553;-76
2022/12/04 09:16:08;;;;;;;48.92;18.70;;;2.10;99.90;;;;;;5039080;28;20530;-76
2022/12/04 09:18:36;;;;;;;52.67;20.55;;;2.10;99.90;;;;;;5054602;28;20123;-77
2022/12/04 09:21:04;;;;;;;48.00;19.10;;;2.20;99.90;;;;;;5055370;28;20079;-76
2022/12/04 09:23:31;;;;;;;48.58;19.70;;;2.20;99.90;;;;;;5055400;28;20049;-76
2022/12/04 09:25:57;;;;;;;45.67;18.40;;;2.30;99.90;;;;;;5038818;28;20510;-78
2022/12/04 09:28:23;;;;;;;44.97;18.30;;;2.30;99.90;;;;;;5071864;28;20048;-76
2022/12/04 09:31:04;;;;;;;46.70;17.88;;;2.40;99.90;;;;;;5054960;28;20127;-76
2022/12/04 09:33:31;;;;;;;42.17;16.92;;;2.30;99.90;;;;;;5072729;28;20520;-77
2022/12/04 09:36:01;;;;;;;39.80;16.20;;;2.50;99.90;;;;;;5038658;28;20093;-76
2022/12/04 09:38:27;;;;;;;38.53;15.90;;;2.60;99.90;;;;;;5071229;28;20075;-77
2022/12/04 09:41:18;;;;;;;45.05;16.73;;;2.70;99.90;;;;;;5038632;28;20086;-76
2022/12/04 09:44:00;;;;;;;41.28;17.15;;;2.60;99.90;;;;;;5054265;28;20858;-78
2022/12/04 09:46:43;;;;;;;43.40;16.20;;;2.70;99.90;;;;;;5071046;28;20048;-76
2022/12/04 09:49:15;;;;;;;43.53;17.60;;;2.70;99.90;;;;;;5055006;28;20044;-77
2022/12/04 09:51:41;;;;;;;41.28;16.60;;;2.70;99.90;;;;;;5054901;28;20044;-77
2022/12/04 09:54:18;;;;;;;41.85;16.17;;;2.70;99.90;;;;;;5054562;28;20051;-77
2022/12/04 09:56:57;;;;;;;38.10;16.45;;;2.70;99.90;;;;;;5038439;28;20520;-76
2022/12/04 09:59:30;;;;;;;42.58;18.17;;;2.70;99.90;;;;;;5054317;28;20159;-77
2022/12/04 10:02:02;;;;;;;41.70;17.13;;;2.80;99.90;;;;;;5054575;28;20054;-77
2022/12/04 10:04:28;;;;;;;40.60;15.82;;;2.80;99.90;;;;;;5054522;28;20073;-77
2022/12/04 10:07:17;;;;;;;38.67;16.45;;;2.80;99.90;;;;;;5054328;28;20052;-76
2022/12/04 10:10:14;;;;;;;42.35;17.65;;;2.80;99.90;;;;;;5054463;28;20106;-78
2022/12/04 10:12:54;;;;;;;40.35;16.88;;;2.80;99.90;;;;;;5073526;28;20044;-77
2022/12/04 10:15:29;;;;;;;40.63;16.70;;;2.80;99.90;;;;;;5057814;28;20083;-74
2022/12/04 10:18:01;;;;;;;37.15;15.48;;;3.70;99.90;;;;;;5073511;28;20470;-76
2022/12/04 10:20:30;;;;;;;41.20;16.83;;;2.80;99.90;;;;;;5074231;28;20044;-76
2022/12/04 10:23:02;;;;;;;40.67;17.02;;;2.90;99.90;;;;;;5057135;28;20469;-77
2022/12/04 10:25:30;;;;;;;40.67;15.52;;;2.90;99.90;;;;;;5050135;28;20060;-78
2022/12/04 10:28:03;;;;;;;37.92;14.93;;;2.90;99.90;;;;;;5091932;28;20040;-77
2022/12/04 10:30:32;;;;;;;39.08;16.05;;;3.00;99.90;;;;;;5073431;28;20048;-76
2022/12/04 10:33:02;;;;;;;38.13;14.98;;;3.00;99.90;;;;;;5057042;28;20394;-77
2022/12/04 10:35:30;;;;;;;32.55;14.02;;;3.10;99.90;;;;;;5057411;28;20048;-74
2022/12/04 10:38:11;;;;;;;31.40;14.38;;;3.00;99.90;;;;;;5047806;28;20036;-76
2022/12/04 10:40:52;;;;;;;33.05;14.98;;;3.00;99.90;;;;;;5070073;28;20051;-76
2022/12/04 10:43:24;;;;;;;32.90;14.18;;;3.10;99.90;;;;;;5036254;28;20056;-76
2022/12/04 10:45:51;;;;;;;30.42;13.52;;;3.10;99.90;;;;;;5053663;28;20052;-77
2022/12/04 10:48:23;;;;;;;28.42;12.25;;;3.20;99.90;;;;;;5020766;28;20040;-76
2022/12/04 10:50:49;;;;;;;32.72;12.98;;;3.20;99.90;;;;;;5037027;28;20066;-76
2022/12/04 10:53:16;;;;;;;31.52;13.48;;;3.20;99.90;;;;;;5053711;28;20152;-77
2022/12/04 10:55:42;;;;;;;29.60;12.30;;;3.20;99.90;;;;;;5036342;28;20564;-76
2022/12/04 10:58:16;;;;;;;30.02;13.13;;;3.20;99.90;;;;;;5053063;28;20060;-77
2022/12/04 11:00:46;;;;;;;26.95;12.65;;;3.20;99.90;;;;;;5036790;28;20052;-76
2022/12/04 11:03:25;;;;;;;31.98;13.90;;;3.30;99.90;;;;;;5036763;28;20482;-75
2022/12/04 11:05:55;;;;;;;30.05;12.57;;;3.30;99.90;;;;;;5052629;28;20044;-74
2022/12/04 11:08:37;;;;;;;27.30;11.88;;;3.30;99.90;;;;;;5050194;28;20043;-75
2022/12/04 11:11:10;;;;;;;27.80;12.05;;;3.20;99.90;;;;;;5088819;28;20052;-75
2022/12/04 11:13:36;;;;;;;29.13;13.25;;;3.20;99.90;;;;;;5055307;28;20056;-75
2022/12/04 11:16:03;;;;;;;29.95;12.75;;;3.20;99.90;;;;;;5040058;28;20047;-75
2022/12/04 11:18:32;;;;;;;29.92;12.70;;;3.20;99.90;;;;;;5072537;28;20097;-75
2022/12/04 11:21:02;;;;;;;26.80;12.50;;;3.20;99.90;;;;;;5056288;28;20052;-76
2022/12/04 11:23:32;;;;;;;28.38;12.20;;;3.20;99.90;;;;;;5073256;28;20131;-75
2022/12/04 11:25:59;;;;;;;28.40;12.75;;;3.20;99.90;;;;;;5090953;28;20051;-74
2022/12/04 11:28:29;;;;;;;28.67;13.25;;;3.60;99.90;;;;;;5073070;28;20050;-75
2022/12/04 11:31:01;;;;;;;31.80;13.30;;;3.20;99.90;;;;;;5055860;28;20486;-76
2022/12/04 11:33:35;;;;;;;29.48;13.27;;;3.20;99.90;;;;;;5067596;28;20040;-76
2022/12/04 11:36:06;;;;;;;28.58;12.93;;;3.20;99.90;;;;;;5035993;28;20447;-76
2022/12/04 11:38:34;;;;;;;31.58;14.40;;;3.20;99.90;;;;;;5062010;28;20046;-77
2022/12/04 11:41:02;;;;;;;31.50;13.23;;;3.20;99.90;;;;;;5055361;28;20494;-75
2022/12/04 11:43:31;;;;;;;30.88;13.05;;;3.20;99.90;;;;;;5038796;28;20040;-76
2022/12/04 11:46:03;;;;;;;27.83;12.35;;;3.30;99.90;;;;;;5055776;28;20109;-75
2022/12/04 11:48:29;;;;;;;;;;;3.30;99.90;;;;;;5072779;28;20060;-75
2022/12/04 11:51:28;;;;;;;28.52;12.93;;;3.30;99.90;;;;;;5055902;28;19920;-76
2022/12/04 11:54:13;;;;;;;27.52;12.90;;;3.30;99.90;;;;;;5048468;28;20048;-77
2022/12/04 11:56:49;;;;;;;30.70;13.80;;;3.30;99.90;;;;;;5055700;28;20108;-77
2022/12/04 11:59:29;;;;;;;28.75;13.13;;;3.30;99.90;;;;;;5089414;28;20064;-76
2022/12/04 12:02:01;;;;;;;31.35;13.90;;;3.30;99.90;;;;;;5055057;28;20060;-76
2022/12/04 12:04:40;;;;;;;33.28;13.82;;;3.40;99.90;;;;;;5055123;28;20040;-77
2022/12/04 12:07:17;;;;;;;31.27;13.90;;;3.40;99.90;;;;;;5054995;28;20122;-77
2022/12/04 12:10:15;;;;;;;32.35;14.70;;;3.40;99.90;;;;;;5066158;28;20048;-75
2022/12/04 12:13:06;;;;;;;33.15;14.00;;;3.30;99.90;;;;;;5011930;28;20071;-76
2022/12/04 12:15:46;;;;;;;31.73;14.25;;;3.30;99.90;;;;;;5045608;28;20741;-76
2022/12/04 12:18:38;;;;;;;31.13;13.88;;;3.30;99.90;;;;;;5055007;28;20036;-77
2022/12/04 12:21:07;;;;;;;;;;;3.30;99.90;;;;;;5058398;28;20482;-77
2022/12/04 12:23:45;;;;;;;30.98;13.77;;;3.30;99.90;;;;;;5062362;28;19964;-78
2022/12/04 12:26:17;;;;;;;31.02;13.20;;;3.30;99.90;;;;;;5053051;28;20448;-75
2022/12/04 12:29:22;;;;;;;31.30;13.70;;;3.30;99.90;;;;;;5042904;28;20082;-76
2022/12/04 12:32:06;;;;;;;32.63;14.05;;;3.80;99.90;;;;;;5029661;28;20101;-77
2022/12/04 12:34:35;;;;;;;31.80;13.93;;;3.30;99.90;;;;;;5059316;28;20398;-77
2022/12/04 12:37:17;;;;;;;31.65;13.57;;;3.30;99.90;;;;;;5058974;28;20046;-77
2022/12/04 12:39:49;;;;;;;;;;;3.30;99.90;;;;;;5059860;28;20050;-78
2022/12/04 12:42:23;;;;;;;30.33;13.48;;;3.30;99.90;;;;;;5075479;28;19920;-76
2022/12/04 12:44:56;;;;;;;34.13;14.27;;;3.40;99.90;;;;;;5043275;28;20044;-76
2022/12/04 12:47:27;;;;;;;33.35;14.02;;;3.30;99.90;;;;;;5073242;28;20094;-78
2022/12/04 12:50:05;;;;;;;32.00;14.10;;;3.30;99.90;;;;;;5058890;28;20048;-76
2022/12/04 12:52:46;;;;;;;34.17;14.15;;;3.30;99.90;;;;;;5059589;28;20044;-76
2022/12/04 12:55:32;;;;;;;33.17;13.82;;;3.30;99.90;;;;;;5054469;28;20052;-75
2022/12/04 12:58:18;;;;;;;34.55;14.27;;;3.30;99.90;;;;;;5068255;28;20037;-77
2022/12/04 13:01:01;;;;;;;36.13;14.73;;;3.30;99.90;;;;;;5041097;28;20047;-78
2022/12/04 13:03:50;;;;;;;33.42;14.35;;;3.40;99.90;;;;;;5074196;28;20401;-77
2022/12/04 13:06:23;;;;;;;31.05;13.88;;;3.30;99.90;;;;;;5058298;28;20051;-76
2022/12/04 13:09:12;;;;;;;34.60;14.65;;;3.40;99.90;;;;;;5039363;28;20541;-78
2022/12/04 13:11:39;;;;;;;41.63;15.80;;;3.40;99.90;;;;;;5063520;28;20044;-77